Time;durP1;ratioP1;P1;durP2;ratioP2;P2;SDS_P1;SDS_P2;PMS_P1;PMS_P2;Temp;Humidity;BMP_temperature;BMP_pressure;BME280_temperature;BME280_humidity;BME280_pressure;Samples;Min_cycle;Max_cycle;Signal;HPM_P1;HPM_P2
2023/09/13 00:01:30;;;;;;;2.42;0.60;;;21.90;99.90;;;;;;4417275;32;20533;-65
2023/09/13 00:03:58;;;;;;;0.30;0.30;;;22.00;99.90;;;;;;4422223;32;20513;-66
2023/09/13 00:06:23;;;;;;;0.20;0.20;;;22.00;99.90;;;;;;4415688;32;20536;-65
2023/09/13 00:08:49;;;;;;;0.43;0.43;;;22.10;99.90;;;;;;4415833;32;20136;-66
2023/09/13 00:11:14;;;;;;;0.50;0.50;;;22.10;99.90;;;;;;4413457;32;20096;-66
2023/09/13 00:13:41;;;;;;;0.60;0.60;;;22.20;99.90;;;;;;4415392;32;20510;-66
2023/09/13 00:16:07;;;;;;;0.30;0.30;;;22.10;99.90;;;;;;4416888;32;20090;-65
2023/09/13 00:18:32;;;;;;;0.80;0.80;;;22.10;99.90;;;;;;4413966;32;20121;-66
2023/09/13 00:20:58;;;;;;;0.75;0.60;;;22.20;99.90;;;;;;4415462;32;20074;-66
2023/09/13 00:23:23;;;;;;;5.18;2.08;;;22.20;99.90;;;;;;4414956;32;20105;-66
2023/09/13 00:25:49;;;;;;;1.62;0.65;;;22.20;99.90;;;;;;4412418;32;20126;-65
2023/09/13 00:28:14;;;;;;;0.62;0.40;;;22.20;99.90;;;;;;4416091;32;20461;-65
2023/09/13 00:30:40;;;;;;;0.93;0.57;;;22.20;99.90;;;;;;4415339;32;20548;-65
2023/09/13 00:33:05;;;;;;;0.62;0.62;;;22.30;99.90;;;;;;4419337;32;20066;-65
2023/09/13 00:35:31;;;;;;;0.45;0.45;;;22.30;99.90;;;;;;4417392;32;20070;-63
2023/09/13 00:37:56;;;;;;;1.85;1.15;;;22.20;99.90;;;;;;4415946;32;20085;-63
2023/09/13 00:40:22;;;;;;;14.85;2.15;;;22.20;99.90;;;;;;4415113;32;20483;-63
2023/09/13 00:42:47;;;;;;;0.82;0.55;;;22.20;99.90;;;;;;4416159;32;20090;-62
2023/09/13 00:45:13;;;;;;;1.35;0.93;;;22.10;99.90;;;;;;4418280;32;20078;-63
2023/09/13 00:47:40;;;;;;;0.10;0.10;;;22.10;99.90;;;;;;4416926;32;20078;-64
2023/09/13 00:50:08;;;;;;;0.30;0.30;;;22.10;99.90;;;;;;4414768;32;20073;-63
2023/09/13 00:52:34;;;;;;;0.40;0.40;;;22.10;99.90;;;;;;4396495;32;20062;-62
2023/09/13 00:55:00;;;;;;;0.40;0.40;;;22.10;99.90;;;;;;4399588;32;20089;-64
2023/09/13 00:57:26;;;;;;;0.77;0.60;;;22.10;99.90;;;;;;4402637;32;20144;-62
2023/09/13 00:59:51;;;;;;;0.40;0.40;;;22.10;99.90;;;;;;4416309;32;20410;-65
2023/09/13 01:02:17;;;;;;;0.80;0.60;;;22.00;99.90;;;;;;4414516;32;20082;-64
2023/09/13 01:04:43;;;;;;;2.37;0.50;;;22.10;99.90;;;;;;4413705;32;20183;-63
2023/09/13 01:07:09;;;;;;;0.30;0.30;;;22.00;99.90;;;;;;4413394;32;20077;-63
2023/09/13 01:09:34;;;;;;;0.90;0.30;;;22.00;99.90;;;;;;4414655;32;20097;-63
2023/09/13 01:12:00;;;;;;;0.22;0.22;;;22.00;99.90;;;;;;4415329;32;20584;-63
2023/09/13 01:14:26;;;;;;;0.65;0.50;;;21.90;99.90;;;;;;4414524;32;20112;-62
2023/09/13 01:17:02;;;;;;;0.30;0.30;;;22.00;99.90;;;;;;4413993;32;20066;-64
2023/09/13 01:19:54;;;;;;;0.80;0.40;;;21.90;99.90;;;;;;4413598;32;20112;-62
2023/09/13 01:22:33;;;;;;;10.50;0.32;;;21.90;99.90;;;;;;4405916;32;20081;-62
2023/09/13 01:25:34;;;;;;;0.32;0.32;;;21.90;99.90;;;;;;4400174;32;20447;-63
2023/09/13 01:28:12;;;;;;;0.98;0.65;;;21.90;99.90;;;;;;4410122;32;20153;-63
2023/09/13 01:30:39;;;;;;;2.72;1.23;;;21.90;99.90;;;;;;4387406;32;20082;-64
2023/09/13 01:33:05;;;;;;;0.50;0.50;;;21.80;99.90;;;;;;4415981;32;20868;-62
2023/09/13 01:35:31;;;;;;;1.17;0.85;;;21.90;99.90;;;;;;4413811;32;20093;-65
2023/09/13 01:37:56;;;;;;;0.50;0.50;;;21.90;99.90;;;;;;4415403;32;20058;-62
2023/09/13 01:40:25;;;;;;;0.45;0.45;;;21.90;99.90;;;;;;4412659;32;20496;-63
2023/09/13 01:42:54;;;;;;;1.67;0.45;;;21.90;99.90;;;;;;4412715;32;20442;-62
2023/09/13 01:45:19;;;;;;;0.30;0.30;;;21.80;99.90;;;;;;4414957;32;20077;-65
2023/09/13 01:47:46;;;;;;;2.10;1.10;;;21.80;99.90;;;;;;4415644;32;20077;-65
2023/09/13 01:50:13;;;;;;;1.95;1.00;;;21.90;99.90;;;;;;4414726;32;20058;-64
2023/09/13 01:52:39;;;;;;;0.30;0.30;;;21.80;99.90;;;;;;4413945;32;20607;-65
2023/09/13 01:55:06;;;;;;;2.47;1.20;;;21.60;99.90;;;;;;4411456;32;20154;-65
2023/09/13 01:57:32;;;;;;;0.45;0.37;;;21.50;99.90;;;;;;4412541;32;20085;-65
2023/09/13 01:59:57;;;;;;;7.18;0.85;;;21.60;99.90;;;;;;4411792;32;20435;-65
2023/09/13 02:02:23;;;;;;;1.50;0.60;;;21.40;99.90;;;;;;4414152;32;20077;-65
2023/09/13 02:04:49;;;;;;;0.73;0.73;;;21.10;99.90;;;;;;4416423;32;20089;-65
2023/09/13 02:07:16;;;;;;;0.50;0.50;;;21.00;99.90;;;;;;4417914;32;20065;-65
2023/09/13 02:09:42;;;;;;;1.48;0.55;;;20.70;99.90;;;;;;4415075;32;20097;-65
2023/09/13 02:12:12;;;;;;;1.40;0.75;;;20.40;99.90;;;;;;4413706;32;20168;-65
2023/09/13 02:14:39;;;;;;;0.60;0.60;;;20.40;99.90;;;;;;4414787;32;21370;-66
2023/09/13 02:17:06;;;;;;;0.62;0.62;;;20.30;99.90;;;;;;4413986;32;20513;-65
2023/09/13 02:19:31;;;;;;;0.30;0.30;;;20.20;99.90;;;;;;4415236;32;20159;-65
2023/09/13 02:21:57;;;;;;;0.30;0.30;;;20.10;99.90;;;;;;4416355;32;20064;-64
2023/09/13 02:24:22;;;;;;;0.65;0.65;;;20.10;99.90;;;;;;4417478;32;20114;-65
2023/09/13 02:26:48;;;;;;;0.40;0.40;;;20.00;99.90;;;;;;4414914;32;20077;-65
2023/09/13 02:29:13;;;;;;;0.40;0.40;;;20.00;99.90;;;;;;4409495;32;20152;-65
2023/09/13 02:31:39;;;;;;;0.30;0.30;;;20.00;99.90;;;;;;4412821;32;20655;-65
2023/09/13 02:34:04;;;;;;;0.73;0.45;;;19.90;99.90;;;;;;4416022;32;20045;-65
2023/09/13 02:36:30;;;;;;;2.00;0.60;;;20.00;99.90;;;;;;4416002;32;20110;-65
2023/09/13 02:38:58;;;;;;;0.73;0.62;;;19.90;99.90;;;;;;4410936;32;20793;-65
2023/09/13 02:41:23;;;;;;;1.50;1.10;;;19.80;99.90;;;;;;4413638;32;20069;-65
2023/09/13 02:43:49;;;;;;;0.52;0.45;;;19.90;99.90;;;;;;4416417;32;20151;-65
2023/09/13 02:46:15;;;;;;;1.27;0.93;;;19.90;99.90;;;;;;4413962;32;20062;-65
2023/09/13 02:48:40;;;;;;;4.45;0.98;;;20.00;99.90;;;;;;4414887;32;20082;-65
2023/09/13 02:51:13;;;;;;;0.47;0.47;;;20.00;99.90;;;;;;4411659;32;20106;-65
2023/09/13 02:53:38;;;;;;;0.40;0.40;;;20.00;99.90;;;;;;4414213;32;20471;-65
2023/09/13 02:56:05;;;;;;;1.33;0.60;;;20.00;99.90;;;;;;4414953;32;20090;-64
2023/09/13 02:58:31;;;;;;;0.50;0.50;;;20.10;99.90;;;;;;4418103;32;20061;-63
2023/09/13 03:00:57;;;;;;;0.43;0.43;;;20.10;99.90;;;;;;4416947;32;20136;-64
2023/09/13 03:03:22;;;;;;;0.75;0.47;;;20.10;99.90;;;;;;4417372;32;20131;-63
2023/09/13 03:05:48;;;;;;;3.10;0.70;;;20.10;99.90;;;;;;4413799;32;20481;-63
2023/09/13 03:08:13;;;;;;;0.50;0.50;;;20.10;99.90;;;;;;4415868;32;20529;-62
2023/09/13 03:10:39;;;;;;;0.70;0.70;;;20.10;99.90;;;;;;4417423;32;20149;-65
2023/09/13 03:13:04;;;;;;;0.35;0.35;;;20.10;99.90;;;;;;4419662;32;20088;-63
2023/09/13 03:15:33;;;;;;;0.37;0.37;;;20.00;99.90;;;;;;4423452;32;20081;-63
2023/09/13 03:17:58;;;;;;;1.80;0.88;;;20.00;99.90;;;;;;4421223;32;20148;-64
2023/09/13 03:20:24;;;;;;;6.50;1.85;;;20.00;99.90;;;;;;4422416;32;20126;-63
2023/09/13 03:22:50;;;;;;;0.55;0.55;;;20.00;99.90;;;;;;4419905;32;20490;-63
2023/09/13 03:25:15;;;;;;;4.87;0.95;;;20.00;99.90;;;;;;4420450;32;20065;-63
2023/09/13 03:27:41;;;;;;;0.57;0.57;;;19.90;99.90;;;;;;4419954;32;20062;-63
2023/09/13 03:30:07;;;;;;;0.60;0.60;;;19.90;99.90;;;;;;4419310;32;20065;-62
2023/09/13 03:32:32;;;;;;;2.92;0.85;;;19.90;99.90;;;;;;4421525;32;20549;-62
2023/09/13 03:34:57;;;;;;;5.40;0.82;;;19.90;99.90;;;;;;4404112;32;20714;-62
2023/09/13 03:37:23;;;;;;;3.20;0.82;;;19.90;99.90;;;;;;4421016;32;20089;-63
2023/09/13 03:39:48;;;;;;;0.75;0.52;;;19.90;99.90;;;;;;4416358;32;20077;-62
2023/09/13 03:42:14;;;;;;;2.85;1.37;;;19.90;99.90;;;;;;4417284;32;20073;-63
2023/09/13 03:44:39;;;;;;;0.68;0.68;;;19.80;99.90;;;;;;4417799;32;20137;-62
2023/09/13 03:47:05;;;;;;;3.28;0.60;;;19.80;99.90;;;;;;4417523;32;20081;-62
2023/09/13 03:49:30;;;;;;;0.62;0.62;;;19.80;99.90;;;;;;4419725;32;20130;-62
2023/09/13 03:51:56;;;;;;;0.52;0.52;;;19.80;99.90;;;;;;4420150;32;20496;-62
2023/09/13 03:54:22;;;;;;;1.60;0.95;;;19.60;99.90;;;;;;4422155;32;20103;-62
2023/09/13 03:56:47;;;;;;;0.43;0.43;;;19.60;99.90;;;;;;4416934;32;20061;-62
2023/09/13 03:59:13;;;;;;;0.80;0.73;;;19.60;99.90;;;;;;4419368;32;20548;-62
2023/09/13 04:01:38;;;;;;;0.60;0.60;;;19.60;99.90;;;;;;4419685;32;20065;-62
2023/09/13 04:04:04;;;;;;;0.68;0.68;;;19.60;99.90;;;;;;4406304;32;20089;-62
2023/09/13 04:06:30;;;;;;;0.30;0.30;;;19.50;99.90;;;;;;4418829;32;20070;-64
2023/09/13 04:08:56;;;;;;;0.77;0.55;;;19.50;99.90;;;;;;4418657;32;20169;-64
2023/09/13 04:11:21;;;;;;;0.55;0.55;;;19.60;99.90;;;;;;4418262;32;20171;-63
2023/09/13 04:13:46;;;;;;;0.85;0.80;;;19.60;99.90;;;;;;4420276;32;20105;-64
2023/09/13 04:16:15;;;;;;;7.62;1.73;;;19.60;99.90;;;;;;4419530;32;20093;-63
2023/09/13 04:18:40;;;;;;;0.57;0.57;;;19.60;99.90;;;;;;4421579;32;20426;-65
2023/09/13 04:21:06;;;;;;;0.50;0.50;;;19.60;99.90;;;;;;4413425;32;20100;-65
2023/09/13 04:23:31;;;;;;;6.22;1.48;;;19.50;99.90;;;;;;4418342;32;20666;-65
2023/09/13 04:25:57;;;;;;;0.57;0.57;;;19.50;99.90;;;;;;4415781;32;20172;-65
2023/09/13 04:28:22;;;;;;;0.40;0.40;;;19.60;99.90;;;;;;4419405;32;20073;-65
2023/09/13 04:30:48;;;;;;;2.03;1.27;;;19.50;99.90;;;;;;4415433;32;20102;-66
2023/09/13 04:33:13;;;;;;;0.40;0.40;;;19.40;99.90;;;;;;4419259;32;20116;-66
2023/09/13 04:35:39;;;;;;;0.77;0.68;;;19.20;99.90;;;;;;4419668;32;20073;-65
2023/09/13 04:38:05;;;;;;;1.00;0.70;;;19.20;99.90;;;;;;4404017;32;20112;-65
2023/09/13 04:40:30;;;;;;;2.65;0.88;;;19.30;99.90;;;;;;4418348;32;20496;-65
2023/09/13 04:43:14;;;;;;;1.15;0.80;;;19.30;99.90;;;;;;4414382;32;20085;-65
2023/09/13 04:45:39;;;;;;;0.60;0.60;;;19.30;99.90;;;;;;4415770;32;20074;-65
2023/09/13 04:48:05;;;;;;;0.40;0.40;;;19.30;99.90;;;;;;4407768;32;20082;-65
2023/09/13 04:50:30;;;;;;;0.77;0.77;;;19.30;99.90;;;;;;4412218;32;20073;-65
2023/09/13 04:52:56;;;;;;;0.70;0.70;;;19.20;99.90;;;;;;4414482;32;20073;-65
2023/09/13 04:55:23;;;;;;;1.55;0.75;;;19.20;99.90;;;;;;4409544;32;20093;-65
2023/09/13 04:57:49;;;;;;;0.40;0.40;;;19.40;99.90;;;;;;4410916;32;20105;-66
2023/09/13 05:00:16;;;;;;;3.05;1.42;;;19.40;99.90;;;;;;4406271;32;20105;-65
2023/09/13 05:02:41;;;;;;;0.50;0.50;;;19.30;99.90;;;;;;4413932;32;20077;-65
2023/09/13 05:05:07;;;;;;;0.52;0.52;;;19.40;99.90;;;;;;4399171;32;20088;-65
2023/09/13 05:07:33;;;;;;;0.82;0.68;;;19.40;99.90;;;;;;4416225;32;20102;-64
2023/09/13 05:09:58;;;;;;;2.78;1.35;;;19.30;99.90;;;;;;4413978;32;20124;-66
2023/09/13 05:12:24;;;;;;;1.17;1.02;;;19.20;99.90;;;;;;4412948;32;20694;-65
2023/09/13 05:14:49;;;;;;;3.83;1.52;;;19.10;99.90;;;;;;4415660;32;20139;-63
2023/09/13 05:17:15;;;;;;;1.80;1.17;;;19.10;99.90;;;;;;4404006;32;20078;-65
2023/09/13 05:19:40;;;;;;;0.85;0.80;;;19.10;99.90;;;;;;4408717;32;20082;-65
2023/09/13 05:22:06;;;;;;;4.93;1.50;;;19.20;99.90;;;;;;4415434;32;20098;-64
2023/09/13 05:24:31;;;;;;;4.57;1.15;;;19.10;99.90;;;;;;4401325;32;20073;-63
2023/09/13 05:26:57;;;;;;;0.62;0.62;;;19.10;99.90;;;;;;4401732;32;20089;-63
2023/09/13 05:29:23;;;;;;;0.98;0.70;;;19.10;99.90;;;;;;4389842;32;20610;-64
2023/09/13 05:31:49;;;;;;;4.12;1.15;;;19.10;99.90;;;;;;4391300;32;20139;-64
2023/09/13 05:34:15;;;;;;;6.78;1.77;;;19.00;99.90;;;;;;4391973;32;20153;-64
2023/09/13 05:36:42;;;;;;;0.90;0.88;;;19.00;99.90;;;;;;4390062;32;20161;-63
2023/09/13 05:39:08;;;;;;;16.67;2.67;;;19.00;99.90;;;;;;4398181;32;20247;-63
2023/09/13 05:41:34;;;;;;;1.00;0.90;;;19.00;99.90;;;;;;4404618;32;20097;-64
2023/09/13 05:44:00;;;;;;;5.25;0.75;;;19.00;99.90;;;;;;4382944;32;20081;-63
2023/09/13 05:46:26;;;;;;;1.37;1.17;;;19.00;99.90;;;;;;4392041;32;20101;-64
2023/09/13 05:48:52;;;;;;;0.73;0.70;;;18.90;99.90;;;;;;4409639;32;20770;-63
2023/09/13 05:51:19;;;;;;;0.60;0.60;;;18.90;99.90;;;;;;4397531;32;20081;-63
2023/09/13 05:53:45;;;;;;;1.60;0.93;;;19.00;99.90;;;;;;4385876;32;20413;-64
2023/09/13 05:56:11;;;;;;;2.10;1.00;;;19.00;99.90;;;;;;4371937;32;20101;-65
2023/09/13 05:58:37;;;;;;;0.55;0.55;;;19.00;99.90;;;;;;4390446;32;20373;-65
2023/09/13 06:01:02;;;;;;;0.85;0.80;;;19.00;99.90;;;;;;4380009;32;20089;-64
2023/09/13 06:03:30;;;;;;;0.73;0.73;;;19.10;99.90;;;;;;4389739;32;20098;-63
2023/09/13 06:05:56;;;;;;;8.63;1.30;;;19.10;99.90;;;;;;4379770;32;20089;-65
2023/09/13 06:08:21;;;;;;;0.80;0.80;;;19.20;99.90;;;;;;4376646;32;20108;-64
2023/09/13 06:10:47;;;;;;;1.98;1.00;;;19.30;99.90;;;;;;4386033;32;20093;-64
2023/09/13 06:13:12;;;;;;;5.85;2.10;;;19.30;99.90;;;;;;4390552;32;21251;-64
2023/09/13 06:15:38;;;;;;;0.60;0.60;;;19.30;99.90;;;;;;4391386;32;20092;-63
2023/09/13 06:18:04;;;;;;;0.88;0.77;;;19.30;99.90;;;;;;4396031;32;20721;-64
2023/09/13 06:20:30;;;;;;;8.23;1.87;;;19.30;99.90;;;;;;4400116;32;20077;-65
2023/09/13 06:22:55;;;;;;;3.45;1.52;;;19.40;99.90;;;;;;4392410;32;20537;-62
2023/09/13 06:25:20;;;;;;;1.08;0.77;;;19.60;99.90;;;;;;4394741;32;20213;-64
2023/09/13 06:27:46;;;;;;;0.68;0.50;;;19.60;99.90;;;;;;4385050;32;20142;-65
2023/09/13 06:30:13;;;;;;;1.05;0.95;;;19.50;99.90;;;;;;4387724;32;20069;-65
2023/09/13 06:32:40;;;;;;;0.70;0.70;;;19.50;99.90;;;;;;4393374;32;20185;-65
2023/09/13 06:35:08;;;;;;;1.52;0.50;;;19.50;99.90;;;;;;4362083;32;20101;-65
2023/09/13 06:37:33;;;;;;;0.60;0.60;;;19.60;99.90;;;;;;4360665;32;20101;-65
2023/09/13 06:39:59;;;;;;;0.85;0.73;;;19.70;99.90;;;;;;4372228;32;20875;-63
2023/09/13 06:42:24;;;;;;;5.87;0.85;;;19.80;99.90;;;;;;4375442;32;20101;-64
2023/09/13 06:44:50;;;;;;;0.40;0.40;;;19.80;99.90;;;;;;4373090;32;20081;-65
2023/09/13 06:47:15;;;;;;;0.70;0.70;;;19.80;99.90;;;;;;4379589;32;20106;-65
2023/09/13 06:49:41;;;;;;;0.50;0.50;;;19.80;99.90;;;;;;4379901;32;20086;-64
2023/09/13 06:52:06;;;;;;;0.50;0.50;;;19.80;99.90;;;;;;4373083;32;21099;-65
2023/09/13 06:54:32;;;;;;;0.75;0.60;;;19.80;99.90;;;;;;4384655;32;20117;-65
2023/09/13 06:56:57;;;;;;;0.50;0.50;;;19.70;99.90;;;;;;4387422;32;20117;-65
2023/09/13 06:59:23;;;;;;;1.65;0.80;;;19.80;99.90;;;;;;4391499;32;20085;-65
2023/09/13 07:01:48;;;;;;;0.47;0.47;;;19.80;99.90;;;;;;4388036;32;20109;-66
2023/09/13 07:04:14;;;;;;;0.47;0.47;;;19.80;99.90;;;;;;4390954;32;20665;-65
2023/09/13 07:06:40;;;;;;;2.37;0.75;;;19.80;99.90;;;;;;4397543;32;20089;-65
2023/09/13 07:09:06;;;;;;;0.80;0.70;;;19.80;99.90;;;;;;4374601;32;20409;-65
2023/09/13 07:11:31;;;;;;;0.75;0.55;;;19.90;99.90;;;;;;4391205;32;21116;-65
2023/09/13 07:13:59;;;;;;;0.73;0.55;;;19.90;99.90;;;;;;4381762;32;20098;-65
2023/09/13 07:16:25;;;;;;;1.58;1.00;;;20.00;99.90;;;;;;4376538;32;20186;-66
2023/09/13 07:18:50;;;;;;;0.65;0.50;;;20.00;99.90;;;;;;4379094;32;20427;-65
2023/09/13 07:21:15;;;;;;;0.55;0.50;;;19.90;99.90;;;;;;4374051;32;20172;-65
2023/09/13 07:23:41;;;;;;;0.30;0.30;;;19.80;99.90;;;;;;4379626;32;20070;-63
2023/09/13 07:26:07;;;;;;;0.65;0.60;;;19.90;99.90;;;;;;4381090;32;20117;-64
2023/09/13 07:28:33;;;;;;;0.90;0.60;;;19.90;99.90;;;;;;4380836;32;20879;-64
2023/09/13 07:30:58;;;;;;;0.37;0.37;;;20.00;99.90;;;;;;4354846;32;20101;-65
2023/09/13 07:33:25;;;;;;;1.10;0.55;;;20.10;99.90;;;;;;4374854;32;20885;-64
2023/09/13 07:35:50;;;;;;;2.45;1.10;;;20.00;99.90;;;;;;4394182;32;20086;-63
2023/09/13 07:38:16;;;;;;;0.93;0.57;;;20.00;99.90;;;;;;4401183;32;20093;-62
2023/09/13 07:40:41;;;;;;;1.10;0.60;;;19.90;99.90;;;;;;4397485;32;20608;-63
2023/09/13 07:43:08;;;;;;;0.90;0.75;;;19.90;99.90;;;;;;4386119;32;20249;-63
2023/09/13 07:45:34;;;;;;;0.43;0.30;;;19.80;99.90;;;;;;4392734;32;20136;-64
2023/09/13 07:48:02;;;;;;;0.32;0.32;;;19.80;99.90;;;;;;4381747;32;20216;-65
2023/09/13 07:50:30;;;;;;;0.57;0.50;;;19.70;99.90;;;;;;4350165;32;20109;-65
2023/09/13 07:52:56;;;;;;;1.62;0.52;;;19.70;99.90;;;;;;4350292;32;20195;-64
2023/09/13 07:55:21;;;;;;;0.57;0.50;;;19.60;99.90;;;;;;4376338;32;20101;-64
2023/09/13 07:57:47;;;;;;;1.85;0.85;;;19.60;99.90;;;;;;4392652;32;20082;-66
2023/09/13 08:00:13;;;;;;;0.95;0.73;;;19.70;99.90;;;;;;4399394;32;20136;-65
2023/09/13 08:02:38;;;;;;;0.47;0.47;;;19.80;99.90;;;;;;4387329;32;20081;-65
2023/09/13 08:05:04;;;;;;;1.17;0.95;;;20.00;99.90;;;;;;4391205;32;20105;-64
2023/09/13 08:07:29;;;;;;;0.50;0.50;;;20.10;99.90;;;;;;4388113;32;20094;-65
2023/09/13 08:09:55;;;;;;;0.45;0.45;;;20.30;99.90;;;;;;4385011;32;20830;-63
2023/09/13 08:12:22;;;;;;;0.30;0.30;;;20.20;99.90;;;;;;4389943;32;20092;-65
2023/09/13 08:14:47;;;;;;;0.55;0.40;;;20.20;99.90;;;;;;4391841;32;20100;-65
2023/09/13 08:17:13;;;;;;;0.85;0.65;;;20.30;99.90;;;;;;4398036;32;20132;-64
2023/09/13 08:19:38;;;;;;;2.55;0.95;;;20.30;99.90;;;;;;4386337;32;20089;-63
2023/09/13 08:22:04;;;;;;;0.50;0.40;;;20.30;99.90;;;;;;4391705;32;20112;-65
2023/09/13 08:24:32;;;;;;;1.00;0.90;;;20.30;99.90;;;;;;4393830;32;20121;-65
2023/09/13 08:26:57;;;;;;;0.30;0.30;;;20.30;99.90;;;;;;4398680;32;20181;-63
2023/09/13 08:29:22;;;;;;;0.40;0.40;;;20.20;99.90;;;;;;4394149;32;20081;-62
2023/09/13 08:31:48;;;;;;;0.25;0.25;;;20.30;99.90;;;;;;4376345;32;20536;-65
2023/09/13 08:34:14;;;;;;;0.20;0.20;;;20.30;99.90;;;;;;4392692;32;20747;-65
2023/09/13 08:36:39;;;;;;;0.22;0.22;;;20.40;99.90;;;;;;4385692;32;20305;-66
2023/09/13 08:39:05;;;;;;;0.30;0.30;;;20.60;99.90;;;;;;4377472;32;20240;-64
2023/09/13 08:41:31;;;;;;;0.35;0.35;;;20.80;99.90;;;;;;4393301;32;20517;-67
2023/09/13 08:43:59;;;;;;;0.30;0.30;;;20.90;99.90;;;;;;4399126;32;20096;-65
2023/09/13 08:46:26;;;;;;;0.57;0.57;;;20.90;99.90;;;;;;4392326;32;20069;-67
2023/09/13 08:48:52;;;;;;;0.30;0.30;;;20.80;99.90;;;;;;4384233;32;20089;-67
2023/09/13 08:51:20;;;;;;;1.73;0.80;;;20.70;99.90;;;;;;4388669;32;20130;-66
2023/09/13 08:53:47;;;;;;;11.10;1.27;;;20.40;99.90;;;;;;4386610;32;20588;-66
2023/09/13 08:56:14;;;;;;;0.30;0.30;;;20.30;99.90;;;;;;4388152;32;20093;-65
2023/09/13 08:58:40;;;;;;;0.30;0.30;;;20.40;99.90;;;;;;4391687;32;20611;-66
2023/09/13 09:01:09;;;;;;;0.65;0.60;;;20.40;99.90;;;;;;4388098;32;20139;-66
2023/09/13 09:03:36;;;;;;;0.35;0.35;;;20.30;99.90;;;;;;4390331;32;20101;-65
2023/09/13 09:06:04;;;;;;;0.20;0.20;;;20.30;99.90;;;;;;4393309;32;20089;-66
2023/09/13 09:08:36;;;;;;;0.37;0.37;;;20.30;99.90;;;;;;4382781;32;20110;-65
2023/09/13 09:11:02;;;;;;;0.30;0.30;;;20.30;99.90;;;;;;4379894;32;20119;-64
2023/09/13 09:13:29;;;;;;;0.65;0.40;;;20.40;99.90;;;;;;4382876;32;20088;-64
2023/09/13 09:15:58;;;;;;;0.30;0.30;;;20.30;99.90;;;;;;4361321;32;20533;-63
2023/09/13 09:18:26;;;;;;;0.45;0.40;;;20.30;99.90;;;;;;4374364;32;20703;-64
2023/09/13 09:20:52;;;;;;;1.20;0.68;;;20.20;99.90;;;;;;4374512;32;20967;-65
2023/09/13 09:23:18;;;;;;;0.68;0.40;;;20.20;99.90;;;;;;4360616;32;20089;-65
2023/09/13 09:25:44;;;;;;;0.30;0.30;;;20.20;99.90;;;;;;4379478;32;20170;-65
2023/09/13 09:28:10;;;;;;;0.22;0.22;;;20.10;99.90;;;;;;4373822;32;20187;-64
2023/09/13 09:30:36;;;;;;;0.30;0.30;;;20.20;99.90;;;;;;4368008;32;20132;-64
2023/09/13 09:33:03;;;;;;;0.40;0.40;;;20.10;99.90;;;;;;4373508;32;20073;-64
2023/09/13 09:35:30;;;;;;;0.37;0.37;;;20.10;99.90;;;;;;4382243;32;20102;-65
2023/09/13 09:37:56;;;;;;;0.30;0.30;;;20.00;99.90;;;;;;4375820;32;20093;-65
2023/09/13 09:40:21;;;;;;;0.40;0.40;;;20.00;99.90;;;;;;4383570;32;20105;-64
2023/09/13 09:42:56;;;;;;;0.30;0.30;;;20.00;99.90;;;;;;4385503;32;20068;-64
2023/09/13 09:45:23;;;;;;;0.30;0.30;;;20.10;99.90;;;;;;4386657;32;20563;-65
2023/09/13 09:47:50;;;;;;;1.60;0.93;;;20.10;99.90;;;;;;4382620;32;20519;-66
2023/09/13 09:50:16;;;;;;;1.02;0.30;;;20.20;99.90;;;;;;4387869;32;20105;-64
2023/09/13 09:52:42;;;;;;;0.35;0.35;;;20.20;99.90;;;;;;4387471;32;20357;-65
2023/09/13 09:55:12;;;;;;;0.28;0.28;;;20.30;99.90;;;;;;4392917;32;20101;-65
2023/09/13 09:57:44;;;;;;;0.20;0.20;;;20.10;99.90;;;;;;4388221;32;20275;-65
2023/09/13 10:00:10;;;;;;;0.20;0.20;;;20.10;99.90;;;;;;4386533;32;20073;-65
2023/09/13 10:02:36;;;;;;;0.20;0.20;;;20.20;99.90;;;;;;4390710;32;20509;-65
2023/09/13 10:05:02;;;;;;;0.30;0.30;;;20.40;99.90;;;;;;4400296;32;20081;-65
2023/09/13 10:07:28;;;;;;;8.73;0.90;;;20.40;99.90;;;;;;4386339;32;20144;-66
2023/09/13 10:09:55;;;;;;;0.20;0.20;;;20.80;99.90;;;;;;4385966;32;20328;-67
2023/09/13 10:12:20;;;;;;;0.30;0.30;;;21.00;99.90;;;;;;4386080;32;20085;-65
2023/09/13 10:14:46;;;;;;;0.37;0.25;;;21.00;99.90;;;;;;4379357;32;20105;-65
2023/09/13 10:17:12;;;;;;;0.32;0.30;;;21.10;99.90;;;;;;4362014;32;20126;-65
2023/09/13 10:19:38;;;;;;;0.15;0.15;;;21.10;99.90;;;;;;4367591;32;20078;-65
2023/09/13 10:22:04;;;;;;;0.20;0.20;;;21.10;99.90;;;;;;4375578;32;20518;-64
2023/09/13 10:24:49;;;;;;;0.20;0.20;;;21.00;99.90;;;;;;4387044;32;20097;-64
2023/09/13 10:27:17;;;;;;;0.40;0.37;;;21.00;99.90;;;;;;4383577;32;20607;-63
2023/09/13 10:29:47;;;;;;;0.20;0.20;;;20.80;99.90;;;;;;4391261;32;21020;-62
2023/09/13 10:32:15;;;;;;;0.30;0.30;;;20.80;99.90;;;;;;4386684;32;20100;-62
2023/09/13 10:34:49;;;;;;;0.30;0.30;;;20.80;99.90;;;;;;4391812;32;20188;-64
2023/09/13 10:37:29;;;;;;;0.20;0.20;;;20.80;99.90;;;;;;4394445;32;20719;-63
2023/09/13 10:40:10;;;;;;;0.10;0.10;;;20.80;99.90;;;;;;4400839;32;20098;-63
2023/09/13 10:42:38;;;;;;;0.73;0.37;;;20.90;99.90;;;;;;4390105;32;20101;-64
2023/09/13 10:45:05;;;;;;;0.40;0.40;;;21.00;99.90;;;;;;4374808;32;20192;-65
2023/09/13 10:47:32;;;;;;;9.02;1.33;;;21.00;99.90;;;;;;4390008;32;20213;-64
2023/09/13 10:50:00;;;;;;;0.43;0.43;;;21.00;99.90;;;;;;4385115;32;20126;-64
2023/09/13 10:52:25;;;;;;;0.20;0.20;;;21.00;99.90;;;;;;4371671;32;20089;-64
2023/09/13 10:54:52;;;;;;;0.45;0.45;;;21.00;99.90;;;;;;4368240;32;20975;-62
2023/09/13 10:57:19;;;;;;;0.20;0.20;;;21.10;99.90;;;;;;4374837;32;20430;-63
2023/09/13 10:59:46;;;;;;;0.30;0.30;;;21.20;99.90;;;;;;4381603;32;20125;-63
2023/09/13 11:02:11;;;;;;;0.20;0.20;;;21.20;99.90;;;;;;4384976;32;20086;-63
2023/09/13 11:04:38;;;;;;;0.20;0.20;;;21.30;99.90;;;;;;4381637;32;20471;-63
2023/09/13 11:07:04;;;;;;;0.30;0.30;;;21.30;99.90;;;;;;4382084;32;20089;-65
2023/09/13 11:09:31;;;;;;;0.20;0.20;;;21.20;99.90;;;;;;4372293;32;21069;-63
2023/09/13 11:11:58;;;;;;;0.37;0.37;;;21.10;99.90;;;;;;4378169;32;20125;-63
2023/09/13 11:14:27;;;;;;;0.30;0.30;;;21.00;99.90;;;;;;4381635;32;20394;-62
2023/09/13 11:16:53;;;;;;;0.15;0.15;;;21.10;99.90;;;;;;4389696;32;20343;-64
2023/09/13 11:19:26;;;;;;;0.10;0.10;;;21.20;99.90;;;;;;4380979;32;20099;-63
2023/09/13 11:21:57;;;;;;;0.40;0.40;;;21.30;99.90;;;;;;4378323;32;20093;-62
2023/09/13 11:24:43;;;;;;;0.10;0.10;;;21.30;99.90;;;;;;4377538;32;20110;-62
2023/09/13 11:27:17;;;;;;;0.20;0.20;;;21.30;99.90;;;;;;4374481;32;20603;-63
2023/09/13 11:29:46;;;;;;;0.20;0.20;;;21.50;99.90;;;;;;4386101;32;20093;-63
2023/09/13 11:32:17;;;;;;;0.20;0.20;;;22.00;99.90;;;;;;4374162;32;20552;-63
2023/09/13 11:34:44;;;;;;;0.30;0.30;;;22.30;99.90;;;;;;4392102;32;20639;-64
2023/09/13 11:37:11;;;;;;;0.25;0.25;;;22.70;99.90;;;;;;4392040;32;20100;-63
2023/09/13 11:39:38;;;;;;;0.20;0.20;;;22.90;99.90;;;;;;4388593;32;20090;-63
2023/09/13 11:42:07;;;;;;;0.10;0.10;;;22.70;99.90;;;;;;4375507;32;20331;-63
2023/09/13 11:44:32;;;;;;;0.22;0.22;;;22.80;99.90;;;;;;4356495;32;20108;-63
2023/09/13 11:46:58;;;;;;;0.40;0.40;;;23.10;99.90;;;;;;4380851;32;20841;-64
2023/09/13 11:49:25;;;;;;;0.37;0.37;;;23.40;99.90;;;;;;4378479;32;88057;-64
2023/09/13 11:51:54;;;;;;;0.10;0.10;;;23.40;99.90;;;;;;4364636;32;20091;-63
2023/09/13 11:54:21;;;;;;;0.03;0.03;;;23.20;99.90;;;;;;4370002;32;20952;-62
2023/09/13 11:56:49;;;;;;;0.52;0.35;;;23.30;99.90;;;;;;4395902;32;21006;-64
2023/09/13 11:59:15;;;;;;;0.22;0.22;;;23.50;99.90;;;;;;4391243;32;20557;-62
2023/09/13 12:01:43;;;;;;;1.35;0.28;;;23.60;99.90;;;;;;4396469;32;20086;-62
2023/09/13 12:04:09;;;;;;;0.10;0.10;;;23.80;99.90;;;;;;4392603;32;20098;-63
2023/09/13 12:06:54;;;;;;;0.10;0.10;;;23.90;99.90;;;;;;4394164;32;20816;-64
2023/09/13 12:09:21;;;;;;;0.15;0.15;;;24.20;99.90;;;;;;4377620;32;21810;-64
2023/09/13 12:11:50;;;;;;;0.25;0.20;;;24.60;99.90;;;;;;4369473;32;20253;-62
2023/09/13 12:14:16;;;;;;;0.13;0.13;;;25.10;99.90;;;;;;4381504;32;20995;-63
2023/09/13 12:16:42;;;;;;;0.20;0.20;;;25.40;99.90;;;;;;4378099;32;20848;-62
2023/09/13 12:19:11;;;;;;;0.30;0.20;;;25.80;99.90;;;;;;4384580;32;20070;-63
2023/09/13 12:21:36;;;;;;;0.10;0.10;;;25.90;99.90;;;;;;4392471;32;20140;-64
2023/09/13 12:24:02;;;;;;;0.47;0.20;;;25.80;99.90;;;;;;4400865;32;20228;-62
2023/09/13 12:26:28;;;;;;;0.03;0.03;;;25.50;99.90;;;;;;4403609;32;20137;-62
2023/09/13 12:28:53;;;;;;;0.10;0.10;;;25.40;99.90;;;;;;4397240;32;20085;-65
2023/09/13 12:31:20;;;;;;;0.10;0.10;;;25.30;99.90;;;;;;4384948;32;20085;-61
2023/09/13 12:33:48;;;;;;;0.13;0.10;;;25.70;99.90;;;;;;4360273;32;20713;-62
2023/09/13 12:36:14;;;;;;;0.22;0.22;;;25.60;99.90;;;;;;4364045;32;20574;-63
2023/09/13 12:38:45;;;;;;;0.10;0.10;;;25.20;99.90;;;;;;4403296;32;20199;-60
2023/09/13 12:41:13;;;;;;;0.17;0.17;;;25.00;99.90;;;;;;4409975;32;20109;-62
2023/09/13 12:43:42;;;;;;;0.22;0.17;;;25.00;99.90;;;;;;4383165;32;20135;-62